Weather at San Andros Airport

Public forecast

Using degrees Celsius for public forecast. Weather courtesy of forecast.io.

Closest aviation weather report (METAR) to San Andros Airport

Closest report is Andros Town Airport, 25.4 nm (47.1 km) SSE.

2024/05/26 20:00 (retrieved 48 minutes ago)

MYAF 262000Z AUTO 16008KT 9999 FEW002 //////CB 28/23 A2996

Closest aviation forecast (TAF) to San Andros Airport

Closest forecast is Lynden Pindling International Airport, 31.7 nm (58.7 km) E.

2024/05/26 18:18 (retrieved 2 hours ago)

TAF MYNN 261709Z 2618/2718 22008KT 9999 VCSH FEW018CB SCT025 PROB30 TEMPO 2700/2704 15010KT 8000 SHRA SCT016CB BKN045 BECMG 2709/2711 19010KT 9999 SCT020